sensor_id;sensor_type;location;lat;lon;timestamp;P1;durP1;ratioP1;P2;durP2;ratioP2
56161;SDS011;42045;52.986;6.014;2023-04-03T00:00:03;2.72;;;1.30;;
56161;SDS011;42045;52.986;6.014;2023-04-03T00:02:30;2.65;;;1.42;;
56161;SDS011;42045;52.986;6.014;2023-04-03T00:04:55;4.40;;;1.60;;
56161;SDS011;42045;52.986;6.014;2023-04-03T00:07:21;2.67;;;1.42;;
56161;SDS011;42045;52.986;6.014;2023-04-03T00:09:46;4.35;;;1.38;;
56161;SDS011;42045;52.986;6.014;2023-04-03T00:12:12;3.45;;;1.40;;
56161;SDS011;42045;52.986;6.014;2023-04-03T00:14:38;3.50;;;1.50;;
56161;SDS011;42045;52.986;6.014;2023-04-03T00:17:04;3.90;;;1.90;;
56161;SDS011;42045;52.986;6.014;2023-04-03T00:19:30;3.85;;;1.45;;
56161;SDS011;42045;52.986;6.014;2023-04-03T00:21:55;2.92;;;1.45;;
56161;SDS011;42045;52.986;6.014;2023-04-03T00:24:21;2.30;;;1.42;;
56161;SDS011;42045;52.986;6.014;2023-04-03T00:26:47;4.32;;;1.40;;
56161;SDS011;42045;52.986;6.014;2023-04-03T00:29:12;2.95;;;1.33;;
56161;SDS011;42045;52.986;6.014;2023-04-03T00:31:38;3.28;;;1.23;;
56161;SDS011;42045;52.986;6.014;2023-04-03T00:34:05;2.20;;;1.55;;
56161;SDS011;42045;52.986;6.014;2023-04-03T00:36:30;5.88;;;1.70;;
56161;SDS011;42045;52.986;6.014;2023-04-03T00:38:56;4.00;;;1.33;;
56161;SDS011;42045;52.986;6.014;2023-04-03T00:41:22;4.45;;;1.40;;
56161;SDS011;42045;52.986;6.014;2023-04-03T00:43:47;2.08;;;1.30;;
56161;SDS011;42045;52.986;6.014;2023-04-03T00:46:13;5.18;;;1.30;;
56161;SDS011;42045;52.986;6.014;2023-04-03T00:51:07;2.42;;;1.52;;
56161;SDS011;42045;52.986;6.014;2023-04-03T00:54:01;5.53;;;2.08;;
56161;SDS011;42045;52.986;6.014;2023-04-03T00:56:30;2.17;;;1.00;;
56161;SDS011;42045;52.986;6.014;2023-04-03T00:59:01;2.95;;;1.27;;
56161;SDS011;42045;52.986;6.014;2023-04-03T01:01:36;4.78;;;1.58;;
56161;SDS011;42045;52.986;6.014;2023-04-03T01:04:03;3.40;;;1.10;;
56161;SDS011;42045;52.986;6.014;2023-04-03T01:06:35;3.95;;;1.58;;
56161;SDS011;42045;52.986;6.014;2023-04-03T01:09:02;4.53;;;1.30;;
56161;SDS011;42045;52.986;6.014;2023-04-03T01:11:29;3.28;;;1.30;;
56161;SDS011;42045;52.986;6.014;2023-04-03T01:13:56;2.92;;;1.45;;
56161;SDS011;42045;52.986;6.014;2023-04-03T01:16:22;2.53;;;1.20;;
56161;SDS011;42045;52.986;6.014;2023-04-03T01:18:47;4.07;;;1.42;;
56161;SDS011;42045;52.986;6.014;2023-04-03T01:21:23;3.13;;;1.20;;
56161;SDS011;42045;52.986;6.014;2023-04-03T01:26:35;4.95;;;1.45;;
56161;SDS011;42045;52.986;6.014;2023-04-03T01:29:00;4.07;;;1.08;;
56161;SDS011;42045;52.986;6.014;2023-04-03T01:31:28;4.25;;;1.08;;
56161;SDS011;42045;52.986;6.014;2023-04-03T01:33:59;1.73;;;1.00;;
56161;SDS011;42045;52.986;6.014;2023-04-03T01:36:30;3.47;;;1.23;;
56161;SDS011;42045;52.986;6.014;2023-04-03T01:38:57;2.63;;;1.20;;
56161;SDS011;42045;52.986;6.014;2023-04-03T01:41:24;3.08;;;1.35;;
56161;SDS011;42045;52.986;6.014;2023-04-03T01:43:51;3.10;;;1.10;;
56161;SDS011;42045;52.986;6.014;2023-04-03T01:46:17;2.97;;;1.15;;
56161;SDS011;42045;52.986;6.014;2023-04-03T01:48:43;1.90;;;0.90;;
56161;SDS011;42045;52.986;6.014;2023-04-03T01:51:09;4.72;;;1.25;;
56161;SDS011;42045;52.986;6.014;2023-04-03T01:53:35;3.63;;;1.58;;
56161;SDS011;42045;52.986;6.014;2023-04-03T01:56:00;2.58;;;1.25;;
56161;SDS011;42045;52.986;6.014;2023-04-03T01:58:26;2.90;;;1.40;;
56161;SDS011;42045;52.986;6.014;2023-04-03T02:00:52;5.07;;;1.05;;
56161;SDS011;42045;52.986;6.014;2023-04-03T02:03:17;2.80;;;1.27;;
56161;SDS011;42045;52.986;6.014;2023-04-03T02:05:43;3.05;;;1.20;;
56161;SDS011;42045;52.986;6.014;2023-04-03T02:08:09;6.25;;;1.40;;
56161;SDS011;42045;52.986;6.014;2023-04-03T02:10:35;4.40;;;1.30;;
56161;SDS011;42045;52.986;6.014;2023-04-03T02:13:01;2.83;;;1.38;;
56161;SDS011;42045;52.986;6.014;2023-04-03T02:15:26;3.63;;;1.20;;
56161;SDS011;42045;52.986;6.014;2023-04-03T02:17:52;3.63;;;1.35;;
56161;SDS011;42045;52.986;6.014;2023-04-03T02:20:18;4.22;;;1.45;;
56161;SDS011;42045;52.986;6.014;2023-04-03T02:22:44;4.05;;;1.38;;
56161;SDS011;42045;52.986;6.014;2023-04-03T02:25:09;4.00;;;1.30;;
56161;SDS011;42045;52.986;6.014;2023-04-03T02:27:35;3.13;;;1.48;;
56161;SDS011;42045;52.986;6.014;2023-04-03T02:30:02;5.05;;;1.88;;
56161;SDS011;42045;52.986;6.014;2023-04-03T02:32:28;2.28;;;1.40;;
56161;SDS011;42045;52.986;6.014;2023-04-03T02:34:54;1.92;;;1.30;;
56161;SDS011;42045;52.986;6.014;2023-04-03T02:37:20;3.83;;;1.50;;
56161;SDS011;42045;52.986;6.014;2023-04-03T02:39:46;4.35;;;1.70;;
56161;SDS011;42045;52.986;6.014;2023-04-03T02:42:11;3.92;;;1.20;;
56161;SDS011;42045;52.986;6.014;2023-04-03T02:44:37;3.63;;;1.63;;
56161;SDS011;42045;52.986;6.014;2023-04-03T02:47:04;3.97;;;1.60;;
56161;SDS011;42045;52.986;6.014;2023-04-03T02:49:30;4.55;;;1.50;;
56161;SDS011;42045;52.986;6.014;2023-04-03T02:51:56;3.10;;;1.45;;
56161;SDS011;42045;52.986;6.014;2023-04-03T02:54:22;5.78;;;1.58;;
56161;SDS011;42045;52.986;6.014;2023-04-03T02:56:49;4.40;;;2.00;;
56161;SDS011;42045;52.986;6.014;2023-04-03T02:59:15;4.35;;;1.40;;
56161;SDS011;42045;52.986;6.014;2023-04-03T03:01:41;4.30;;;1.42;;
56161;SDS011;42045;52.986;6.014;2023-04-03T03:04:06;4.05;;;1.50;;
56161;SDS011;42045;52.986;6.014;2023-04-03T03:06:32;3.65;;;1.92;;
56161;SDS011;42045;52.986;6.014;2023-04-03T03:08:58;6.22;;;1.70;;
56161;SDS011;42045;52.986;6.014;2023-04-03T03:11:23;5.22;;;1.55;;
56161;SDS011;42045;52.986;6.014;2023-04-03T03:13:50;3.72;;;1.70;;
56161;SDS011;42045;52.986;6.014;2023-04-03T03:16:15;4.07;;;1.20;;
56161;SDS011;42045;52.986;6.014;2023-04-03T03:18:41;4.90;;;2.45;;
56161;SDS011;42045;52.986;6.014;2023-04-03T03:21:08;5.28;;;1.85;;
56161;SDS011;42045;52.986;6.014;2023-04-03T03:23:35;3.97;;;1.70;;
56161;SDS011;42045;52.986;6.014;2023-04-03T03:26:02;3.65;;;1.77;;
56161;SDS011;42045;52.986;6.014;2023-04-03T03:28:29;4.85;;;1.60;;
56161;SDS011;42045;52.986;6.014;2023-04-03T03:30:56;4.20;;;1.80;;
56161;SDS011;42045;52.986;6.014;2023-04-03T03:33:22;7.45;;;2.63;;
56161;SDS011;42045;52.986;6.014;2023-04-03T03:35:48;5.53;;;1.80;;
56161;SDS011;42045;52.986;6.014;2023-04-03T03:38:14;4.28;;;1.77;;
56161;SDS011;42045;52.986;6.014;2023-04-03T03:40:39;4.95;;;1.88;;
56161;SDS011;42045;52.986;6.014;2023-04-03T03:43:05;5.63;;;2.15;;
56161;SDS011;42045;52.986;6.014;2023-04-03T03:45:31;3.90;;;1.83;;
56161;SDS011;42045;52.986;6.014;2023-04-03T03:47:57;8.20;;;3.13;;
56161;SDS011;42045;52.986;6.014;2023-04-03T03:50:22;4.15;;;1.75;;
56161;SDS011;42045;52.986;6.014;2023-04-03T03:52:48;4.85;;;1.90;;
56161;SDS011;42045;52.986;6.014;2023-04-03T03:55:14;5.68;;;2.20;;
56161;SDS011;42045;52.986;6.014;2023-04-03T03:57:39;6.90;;;2.08;;
56161;SDS011;42045;52.986;6.014;2023-04-03T04:00:05;4.22;;;2.08;;
56161;SDS011;42045;52.986;6.014;2023-04-03T04:02:32;6.32;;;2.47;;
56161;SDS011;42045;52.986;6.014;2023-04-03T04:04:58;8.20;;;2.10;;
56161;SDS011;42045;52.986;6.014;2023-04-03T04:07:23;4.63;;;2.13;;
56161;SDS011;42045;52.986;6.014;2023-04-03T04:09:49;6.47;;;2.38;;
56161;SDS011;42045;52.986;6.014;2023-04-03T04:12:15;3.35;;;1.75;;
56161;SDS011;42045;52.986;6.014;2023-04-03T04:14:41;8.10;;;2.22;;
56161;SDS011;42045;52.986;6.014;2023-04-03T04:17:06;6.65;;;2.55;;
56161;SDS011;42045;52.986;6.014;2023-04-03T04:19:32;6.13;;;1.90;;
56161;SDS011;42045;52.986;6.014;2023-04-03T04:21:58;6.32;;;2.28;;
56161;SDS011;42045;52.986;6.014;2023-04-03T04:24:24;6.72;;;2.05;;
56161;SDS011;42045;52.986;6.014;2023-04-03T04:26:49;4.07;;;1.92;;
56161;SDS011;42045;52.986;6.014;2023-04-03T04:29:15;3.03;;;1.73;;
56161;SDS011;42045;52.986;6.014;2023-04-03T04:31:41;3.85;;;1.83;;
56161;SDS011;42045;52.986;6.014;2023-04-03T04:34:06;6.28;;;2.58;;
56161;SDS011;42045;52.986;6.014;2023-04-03T04:36:32;4.70;;;2.30;;
56161;SDS011;42045;52.986;6.014;2023-04-03T04:38:58;8.70;;;2.47;;
56161;SDS011;42045;52.986;6.014;2023-04-03T04:41:23;8.00;;;2.13;;
56161;SDS011;42045;52.986;6.014;2023-04-03T04:43:50;4.53;;;2.28;;
56161;SDS011;42045;52.986;6.014;2023-04-03T04:46:16;5.55;;;2.63;;
56161;SDS011;42045;52.986;6.014;2023-04-03T04:48:42;7.70;;;2.78;;
56161;SDS011;42045;52.986;6.014;2023-04-03T04:51:08;5.18;;;2.00;;
56161;SDS011;42045;52.986;6.014;2023-04-03T04:53:33;5.60;;;2.35;;
56161;SDS011;42045;52.986;6.014;2023-04-03T04:55:59;6.85;;;2.17;;
56161;SDS011;42045;52.986;6.014;2023-04-03T04:58:25;4.15;;;2.33;;
56161;SDS011;42045;52.986;6.014;2023-04-03T05:03:30;4.97;;;2.90;;
56161;SDS011;42045;52.986;6.014;2023-04-03T05:05:56;8.50;;;3.00;;
56161;SDS011;42045;52.986;6.014;2023-04-03T05:08:22;7.10;;;2.80;;
56161;SDS011;42045;52.986;6.014;2023-04-03T05:10:48;5.60;;;2.45;;
56161;SDS011;42045;52.986;6.014;2023-04-03T05:13:14;4.60;;;2.50;;
56161;SDS011;42045;52.986;6.014;2023-04-03T05:15:40;8.80;;;2.80;;
56161;SDS011;42045;52.986;6.014;2023-04-03T05:18:06;6.30;;;2.75;;
56161;SDS011;42045;52.986;6.014;2023-04-03T05:20:32;7.88;;;2.55;;
56161;SDS011;42045;52.986;6.014;2023-04-03T05:22:58;8.13;;;2.83;;
56161;SDS011;42045;52.986;6.014;2023-04-03T05:25:24;6.78;;;2.80;;
56161;SDS011;42045;52.986;6.014;2023-04-03T05:27:50;7.25;;;3.45;;
56161;SDS011;42045;52.986;6.014;2023-04-03T05:30:16;7.65;;;2.88;;
56161;SDS011;42045;52.986;6.014;2023-04-03T05:32:41;3.95;;;2.92;;
56161;SDS011;42045;52.986;6.014;2023-04-03T05:35:08;4.65;;;2.30;;
56161;SDS011;42045;52.986;6.014;2023-04-03T05:37:34;7.35;;;2.92;;
56161;SDS011;42045;52.986;6.014;2023-04-03T05:39:59;4.68;;;2.53;;
56161;SDS011;42045;52.986;6.014;2023-04-03T05:42:26;6.18;;;3.05;;
56161;SDS011;42045;52.986;6.014;2023-04-03T05:44:51;7.00;;;2.85;;
56161;SDS011;42045;52.986;6.014;2023-04-03T05:47:17;6.18;;;2.47;;
56161;SDS011;42045;52.986;6.014;2023-04-03T05:49:43;5.60;;;2.63;;
56161;SDS011;42045;52.986;6.014;2023-04-03T05:52:17;7.38;;;2.30;;
56161;SDS011;42045;52.986;6.014;2023-04-03T05:54:51;5.10;;;2.55;;
56161;SDS011;42045;52.986;6.014;2023-04-03T05:57:17;3.80;;;2.28;;
56161;SDS011;42045;52.986;6.014;2023-04-03T05:59:43;4.07;;;2.20;;
56161;SDS011;42045;52.986;6.014;2023-04-03T06:02:14;4.53;;;2.55;;
56161;SDS011;42045;52.986;6.014;2023-04-03T06:04:42;5.78;;;2.47;;
56161;SDS011;42045;52.986;6.014;2023-04-03T06:07:12;5.25;;;2.70;;
56161;SDS011;42045;52.986;6.014;2023-04-03T06:09:40;5.40;;;2.28;;
56161;SDS011;42045;52.986;6.014;2023-04-03T06:12:06;4.47;;;2.33;;
56161;SDS011;42045;52.986;6.014;2023-04-03T06:14:32;5.07;;;2.53;;
56161;SDS011;42045;52.986;6.014;2023-04-03T06:16:58;6.97;;;2.78;;
56161;SDS011;42045;52.986;6.014;2023-04-03T06:19:24;6.40;;;2.42;;
56161;SDS011;42045;52.986;6.014;2023-04-03T06:21:50;6.47;;;2.97;;
56161;SDS011;42045;52.986;6.014;2023-04-03T06:24:17;6.43;;;2.70;;
56161;SDS011;42045;52.986;6.014;2023-04-03T06:26:43;5.00;;;2.65;;
56161;SDS011;42045;52.986;6.014;2023-04-03T06:29:09;6.25;;;2.90;;
56161;SDS011;42045;52.986;6.014;2023-04-03T06:31:35;7.43;;;2.90;;
56161;SDS011;42045;52.986;6.014;2023-04-03T06:34:03;8.40;;;2.97;;
56161;SDS011;42045;52.986;6.014;2023-04-03T06:36:30;5.38;;;2.58;;
56161;SDS011;42045;52.986;6.014;2023-04-03T06:38:56;5.70;;;2.55;;
56161;SDS011;42045;52.986;6.014;2023-04-03T06:41:22;5.60;;;3.28;;
56161;SDS011;42045;52.986;6.014;2023-04-03T06:43:48;5.00;;;2.75;;
56161;SDS011;42045;52.986;6.014;2023-04-03T06:46:14;5.40;;;2.40;;
56161;SDS011;42045;52.986;6.014;2023-04-03T06:48:41;6.07;;;2.60;;
56161;SDS011;42045;52.986;6.014;2023-04-03T06:51:11;7.05;;;2.67;;
56161;SDS011;42045;52.986;6.014;2023-04-03T06:53:45;6.10;;;2.55;;
56161;SDS011;42045;52.986;6.014;2023-04-03T06:56:11;6.47;;;2.72;;
56161;SDS011;42045;52.986;6.014;2023-04-03T06:58:38;8.18;;;2.67;;
56161;SDS011;42045;52.986;6.014;2023-04-03T07:01:04;6.60;;;2.40;;
56161;SDS011;42045;52.986;6.014;2023-04-03T07:03:30;6.68;;;2.50;;
56161;SDS011;42045;52.986;6.014;2023-04-03T07:05:56;6.20;;;2.40;;
56161;SDS011;42045;52.986;6.014;2023-04-03T07:08:21;7.15;;;2.50;;
56161;SDS011;42045;52.986;6.014;2023-04-03T07:10:48;5.30;;;2.25;;
56161;SDS011;42045;52.986;6.014;2023-04-03T07:13:15;4.88;;;2.42;;
56161;SDS011;42045;52.986;6.014;2023-04-03T07:15:41;5.63;;;2.63;;
56161;SDS011;42045;52.986;6.014;2023-04-03T07:18:06;8.45;;;2.50;;
56161;SDS011;42045;52.986;6.014;2023-04-03T07:20:32;5.20;;;2.63;;
56161;SDS011;42045;52.986;6.014;2023-04-03T07:22:58;4.60;;;2.72;;
56161;SDS011;42045;52.986;6.014;2023-04-03T07:25:24;7.72;;;2.67;;
56161;SDS011;42045;52.986;6.014;2023-04-03T07:27:50;4.15;;;2.30;;
56161;SDS011;42045;52.986;6.014;2023-04-03T07:30:16;7.88;;;3.13;;
56161;SDS011;42045;52.986;6.014;2023-04-03T07:32:41;7.13;;;2.60;;
56161;SDS011;42045;52.986;6.014;2023-04-03T07:35:07;9.25;;;2.17;;
56161;SDS011;42045;52.986;6.014;2023-04-03T07:37:33;7.00;;;2.42;;
56161;SDS011;42045;52.986;6.014;2023-04-03T07:39:58;5.53;;;2.22;;
56161;SDS011;42045;52.986;6.014;2023-04-03T07:42:25;5.20;;;2.15;;
56161;SDS011;42045;52.986;6.014;2023-04-03T07:44:53;7.70;;;2.58;;
56161;SDS011;42045;52.986;6.014;2023-04-03T07:47:19;5.35;;;2.15;;
56161;SDS011;42045;52.986;6.014;2023-04-03T07:49:46;6.43;;;2.40;;
56161;SDS011;42045;52.986;6.014;2023-04-03T07:52:12;5.22;;;2.03;;
56161;SDS011;42045;52.986;6.014;2023-04-03T07:54:39;4.65;;;2.08;;
56161;SDS011;42045;52.986;6.014;2023-04-03T07:57:05;5.95;;;2.85;;
56161;SDS011;42045;52.986;6.014;2023-04-03T07:59:31;6.57;;;1.95;;
56161;SDS011;42045;52.986;6.014;2023-04-03T08:01:57;4.57;;;1.90;;
56161;SDS011;42045;52.986;6.014;2023-04-03T08:04:23;3.80;;;2.00;;
56161;SDS011;42045;52.986;6.014;2023-04-03T08:06:49;5.63;;;2.17;;
56161;SDS011;42045;52.986;6.014;2023-04-03T08:09:15;3.40;;;2.00;;
56161;SDS011;42045;52.986;6.014;2023-04-03T08:11:41;8.27;;;2.05;;
56161;SDS011;42045;52.986;6.014;2023-04-03T08:14:06;10.38;;;2.63;;
56161;SDS011;42045;52.986;6.014;2023-04-03T08:16:32;4.45;;;1.90;;
56161;SDS011;42045;52.986;6.014;2023-04-03T08:18:58;3.92;;;1.70;;
56161;SDS011;42045;52.986;6.014;2023-04-03T08:21:24;13.73;;;2.15;;
56161;SDS011;42045;52.986;6.014;2023-04-03T08:23:50;5.90;;;1.75;;
56161;SDS011;42045;52.986;6.014;2023-04-03T08:26:17;4.72;;;2.00;;
56161;SDS011;42045;52.986;6.014;2023-04-03T08:28:45;6.57;;;1.83;;
56161;SDS011;42045;52.986;6.014;2023-04-03T08:31:12;4.18;;;1.65;;
56161;SDS011;42045;52.986;6.014;2023-04-03T08:33:41;2.78;;;1.80;;
56161;SDS011;42045;52.986;6.014;2023-04-03T08:36:07;5.63;;;1.92;;
56161;SDS011;42045;52.986;6.014;2023-04-03T08:38:41;4.28;;;1.58;;
56161;SDS011;42045;52.986;6.014;2023-04-03T08:41:13;5.07;;;1.95;;
56161;SDS011;42045;52.986;6.014;2023-04-03T08:52:17;4.63;;;1.50;;
56161;SDS011;42045;52.986;6.014;2023-04-03T08:54:49;2.90;;;1.10;;
56161;SDS011;42045;52.986;6.014;2023-04-03T08:57:16;4.65;;;1.35;;
56161;SDS011;42045;52.986;6.014;2023-04-03T08:59:49;3.15;;;1.42;;
56161;SDS011;42045;52.986;6.014;2023-04-03T09:02:23;4.93;;;1.60;;
56161;SDS011;42045;52.986;6.014;2023-04-03T09:04:56;3.50;;;1.20;;
56161;SDS011;42045;52.986;6.014;2023-04-03T09:07:25;2.92;;;1.42;;
56161;SDS011;42045;52.986;6.014;2023-04-03T09:10:03;5.13;;;1.65;;
56161;SDS011;42045;52.986;6.014;2023-04-03T09:12:39;2.85;;;1.05;;
56161;SDS011;42045;52.986;6.014;2023-04-03T09:17:46;3.10;;;1.27;;
56161;SDS011;42045;52.986;6.014;2023-04-03T09:20:38;3.75;;;1.15;;
56161;SDS011;42045;52.986;6.014;2023-04-03T09:23:34;2.30;;;1.10;;
56161;SDS011;42045;52.986;6.014;2023-04-03T09:26:18;2.83;;;1.05;;
56161;SDS011;42045;52.986;6.014;2023-04-03T09:28:55;3.58;;;1.52;;
56161;SDS011;42045;52.986;6.014;2023-04-03T09:31:44;3.85;;;1.58;;
56161;SDS011;42045;52.986;6.014;2023-04-03T09:36:49;2.60;;;1.30;;
56161;SDS011;42045;52.986;6.014;2023-04-03T09:41:54;4.45;;;1.42;;
56161;SDS011;42045;52.986;6.014;2023-04-03T09:44:22;4.60;;;1.20;;
56161;SDS011;42045;52.986;6.014;2023-04-03T09:46:53;2.92;;;1.27;;
56161;SDS011;42045;52.986;6.014;2023-04-03T09:49:20;4.15;;;1.33;;
56161;SDS011;42045;52.986;6.014;2023-04-03T09:51:46;3.85;;;1.20;;
56161;SDS011;42045;52.986;6.014;2023-04-03T09:56:56;3.17;;;1.20;;
56161;SDS011;42045;52.986;6.014;2023-04-03T09:59:26;3.60;;;1.20;;
56161;SDS011;42045;52.986;6.014;2023-04-03T10:02:19;2.65;;;1.17;;
56161;SDS011;42045;52.986;6.014;2023-04-03T10:04:52;2.65;;;1.20;;
56161;SDS011;42045;52.986;6.014;2023-04-03T10:09:55;2.67;;;1.42;;
56161;SDS011;42045;52.986;6.014;2023-04-03T10:12:22;2.22;;;1.02;;
56161;SDS011;42045;52.986;6.014;2023-04-03T10:19:55;4.85;;;1.20;;
56161;SDS011;42045;52.986;6.014;2023-04-03T10:23:33;3.35;;;1.30;;
56161;SDS011;42045;52.986;6.014;2023-04-03T10:28:50;2.28;;;1.10;;
56161;SDS011;42045;52.986;6.014;2023-04-03T10:31:33;2.65;;;1.00;;
56161;SDS011;42045;52.986;6.014;2023-04-03T10:42:35;3.20;;;1.05;;
56161;SDS011;42045;52.986;6.014;2023-04-03T10:45:15;2.15;;;1.10;;
56161;SDS011;42045;52.986;6.014;2023-04-03T10:50:39;2.00;;;0.85;;
56161;SDS011;42045;52.986;6.014;2023-04-03T10:58:45;3.38;;;0.90;;
56161;SDS011;42045;52.986;6.014;2023-04-03T11:01:23;2.88;;;0.75;;
56161;SDS011;42045;52.986;6.014;2023-04-03T11:03:57;3.33;;;0.85;;
56161;SDS011;42045;52.986;6.014;2023-04-03T11:06:24;2.47;;;1.00;;
56161;SDS011;42045;52.986;6.014;2023-04-03T11:09:02;1.73;;;0.77;;
56161;SDS011;42045;52.986;6.014;2023-04-03T11:11:36;3.45;;;0.88;;
56161;SDS011;42045;52.986;6.014;2023-04-03T11:20:00;3.40;;;1.20;;
56161;SDS011;42045;52.986;6.014;2023-04-03T11:22:39;1.60;;;0.73;;
56161;SDS011;42045;52.986;6.014;2023-04-03T11:27:59;2.42;;;0.73;;
56161;SDS011;42045;52.986;6.014;2023-04-03T11:36:33;1.13;;;0.60;;
56161;SDS011;42045;52.986;6.014;2023-04-03T11:39:31;2.05;;;0.70;;
56161;SDS011;42045;52.986;6.014;2023-04-03T11:42:15;3.15;;;0.90;;
56161;SDS011;42045;52.986;6.014;2023-04-03T11:44:49;2.55;;;0.80;;
56161;SDS011;42045;52.986;6.014;2023-04-03T11:47:43;1.60;;;0.90;;
56161;SDS011;42045;52.986;6.014;2023-04-03T12:05:51;5.07;;;1.75;;
56161;SDS011;42045;52.986;6.014;2023-04-03T12:11:15;3.17;;;1.42;;
56161;SDS011;42045;52.986;6.014;2023-04-03T12:16:24;1.75;;;0.80;;
56161;SDS011;42045;52.986;6.014;2023-04-03T12:19:02;2.97;;;1.15;;
56161;SDS011;42045;52.986;6.014;2023-04-03T12:23:56;2.88;;;1.10;;
56161;SDS011;42045;52.986;6.014;2023-04-03T12:26:26;2.85;;;1.08;;
56161;SDS011;42045;52.986;6.014;2023-04-03T12:28:55;2.95;;;1.20;;
56161;SDS011;42045;52.986;6.014;2023-04-03T12:31:22;3.20;;;1.30;;
56161;SDS011;42045;52.986;6.014;2023-04-03T12:36:30;2.72;;;1.10;;
56161;SDS011;42045;52.986;6.014;2023-04-03T12:41:52;3.58;;;1.33;;
56161;SDS011;42045;52.986;6.014;2023-04-03T12:50:03;3.88;;;1.20;;
56161;SDS011;42045;52.986;6.014;2023-04-03T12:52:45;4.20;;;1.58;;
56161;SDS011;42045;52.986;6.014;2023-04-03T12:55:18;3.10;;;1.33;;
56161;SDS011;42045;52.986;6.014;2023-04-03T12:57:45;2.78;;;1.10;;
56161;SDS011;42045;52.986;6.014;2023-04-03T13:00:33;3.08;;;1.30;;
56161;SDS011;42045;52.986;6.014;2023-04-03T13:02:59;3.22;;;1.25;;
56161;SDS011;42045;52.986;6.014;2023-04-03T13:05:26;4.35;;;1.88;;
56161;SDS011;42045;52.986;6.014;2023-04-03T13:08:03;2.63;;;1.45;;
56161;SDS011;42045;52.986;6.014;2023-04-03T13:10:35;3.85;;;1.60;;
56161;SDS011;42045;52.986;6.014;2023-04-03T13:13:17;3.83;;;1.77;;
56161;SDS011;42045;52.986;6.014;2023-04-03T13:15:45;3.33;;;1.50;;
56161;SDS011;42045;52.986;6.014;2023-04-03T13:18:25;2.95;;;1.40;;
56161;SDS011;42045;52.986;6.014;2023-04-03T13:21:04;5.40;;;2.20;;
56161;SDS011;42045;52.986;6.014;2023-04-03T13:23:38;2.33;;;1.70;;
56161;SDS011;42045;52.986;6.014;2023-04-03T13:26:08;4.78;;;1.90;;
56161;SDS011;42045;52.986;6.014;2023-04-03T13:28:34;4.80;;;1.73;;
56161;SDS011;42045;52.986;6.014;2023-04-03T13:33:28;4.20;;;1.50;;
56161;SDS011;42045;52.986;6.014;2023-04-03T13:36:04;4.03;;;1.45;;
56161;SDS011;42045;52.986;6.014;2023-04-03T13:38:31;3.30;;;1.30;;
56161;SDS011;42045;52.986;6.014;2023-04-03T13:40:59;2.30;;;1.20;;
56161;SDS011;42045;52.986;6.014;2023-04-03T13:43:49;4.22;;;1.52;;
56161;SDS011;42045;52.986;6.014;2023-04-03T13:48:44;3.33;;;1.30;;
56161;SDS011;42045;52.986;6.014;2023-04-03T13:53:45;2.92;;;1.50;;
56161;SDS011;42045;52.986;6.014;2023-04-03T13:56:22;2.80;;;1.38;;
56161;SDS011;42045;52.986;6.014;2023-04-03T13:58:55;4.35;;;1.60;;
56161;SDS011;42045;52.986;6.014;2023-04-03T14:01:25;3.80;;;1.52;;
56161;SDS011;42045;52.986;6.014;2023-04-03T14:04:00;2.88;;;1.38;;
56161;SDS011;42045;52.986;6.014;2023-04-03T14:06:35;4.35;;;1.80;;
56161;SDS011;42045;52.986;6.014;2023-04-03T14:09:02;2.78;;;1.40;;
56161;SDS011;42045;52.986;6.014;2023-04-03T14:11:28;3.05;;;1.40;;
56161;SDS011;42045;52.986;6.014;2023-04-03T14:13:57;2.75;;;1.42;;
56161;SDS011;42045;52.986;6.014;2023-04-03T14:16:27;2.80;;;1.40;;
56161;SDS011;42045;52.986;6.014;2023-04-03T14:18:55;3.95;;;1.40;;
56161;SDS011;42045;52.986;6.014;2023-04-03T14:21:21;3.95;;;1.48;;
56161;SDS011;42045;52.986;6.014;2023-04-03T14:23:48;2.30;;;1.45;;
56161;SDS011;42045;52.986;6.014;2023-04-03T14:26:22;3.03;;;1.55;;
56161;SDS011;42045;52.986;6.014;2023-04-03T14:28:51;3.85;;;1.35;;
56161;SDS011;42045;52.986;6.014;2023-04-03T14:31:18;2.80;;;1.33;;
56161;SDS011;42045;52.986;6.014;2023-04-03T14:33:45;2.72;;;1.50;;
56161;SDS011;42045;52.986;6.014;2023-04-03T14:38:41;2.88;;;1.60;;
56161;SDS011;42045;52.986;6.014;2023-04-03T14:41:10;3.40;;;1.40;;
56161;SDS011;42045;52.986;6.014;2023-04-03T14:43:37;3.42;;;1.60;;
56161;SDS011;42045;52.986;6.014;2023-04-03T14:46:03;5.50;;;2.08;;
56161;SDS011;42045;52.986;6.014;2023-04-03T14:48:30;5.50;;;2.03;;
56161;SDS011;42045;52.986;6.014;2023-04-03T14:50:56;3.50;;;1.60;;
56161;SDS011;42045;52.986;6.014;2023-04-03T14:53:22;3.60;;;1.63;;
56161;SDS011;42045;52.986;6.014;2023-04-03T14:55:50;2.67;;;1.48;;
56161;SDS011;42045;52.986;6.014;2023-04-03T14:58:17;3.30;;;1.80;;
56161;SDS011;42045;52.986;6.014;2023-04-03T15:00:44;5.47;;;1.95;;
56161;SDS011;42045;52.986;6.014;2023-04-03T15:03:17;3.05;;;1.42;;
56161;SDS011;42045;52.986;6.014;2023-04-03T15:05:45;3.72;;;1.90;;
56161;SDS011;42045;52.986;6.014;2023-04-03T15:08:22;2.92;;;1.60;;
56161;SDS011;42045;52.986;6.014;2023-04-03T15:10:50;3.17;;;1.50;;
56161;SDS011;42045;52.986;6.014;2023-04-03T15:13:20;4.10;;;1.83;;
56161;SDS011;42045;52.986;6.014;2023-04-03T15:15:46;4.18;;;1.67;;
56161;SDS011;42045;52.986;6.014;2023-04-03T15:18:15;2.83;;;1.33;;
56161;SDS011;42045;52.986;6.014;2023-04-03T15:20:47;4.43;;;1.60;;
56161;SDS011;42045;52.986;6.014;2023-04-03T15:23:14;3.05;;;1.60;;
56161;SDS011;42045;52.986;6.014;2023-04-03T15:25:44;2.50;;;1.60;;
56161;SDS011;42045;52.986;6.014;2023-04-03T15:30:52;5.45;;;1.70;;
56161;SDS011;42045;52.986;6.014;2023-04-03T15:33:18;3.45;;;1.52;;
56161;SDS011;42045;52.986;6.014;2023-04-03T15:35:43;3.17;;;1.40;;
56161;SDS011;42045;52.986;6.014;2023-04-03T15:38:09;1.73;;;0.95;;
56161;SDS011;42045;52.986;6.014;2023-04-03T15:40:35;3.65;;;1.55;;
56161;SDS011;42045;52.986;6.014;2023-04-03T15:43:01;1.80;;;1.35;;
56161;SDS011;42045;52.986;6.014;2023-04-03T15:45:30;2.42;;;1.40;;
56161;SDS011;42045;52.986;6.014;2023-04-03T15:47:57;3.58;;;1.20;;
56161;SDS011;42045;52.986;6.014;2023-04-03T15:50:23;2.45;;;1.20;;
56161;SDS011;42045;52.986;6.014;2023-04-03T15:52:49;5.18;;;1.45;;
56161;SDS011;42045;52.986;6.014;2023-04-03T15:55:22;3.60;;;1.27;;
56161;SDS011;42045;52.986;6.014;2023-04-03T15:57:53;4.15;;;1.45;;
56161;SDS011;42045;52.986;6.014;2023-04-03T16:00:19;1.92;;;1.17;;
56161;SDS011;42045;52.986;6.014;2023-04-03T16:02:46;3.75;;;1.40;;
56161;SDS011;42045;52.986;6.014;2023-04-03T16:05:13;2.55;;;1.48;;
56161;SDS011;42045;52.986;6.014;2023-04-03T16:07:42;2.85;;;1.40;;
56161;SDS011;42045;52.986;6.014;2023-04-03T16:10:08;5.10;;;1.67;;
56161;SDS011;42045;52.986;6.014;2023-04-03T16:12:35;3.17;;;1.95;;
56161;SDS011;42045;52.986;6.014;2023-04-03T16:15:01;3.38;;;1.15;;
56161;SDS011;42045;52.986;6.014;2023-04-03T16:17:28;3.97;;;1.50;;
56161;SDS011;42045;52.986;6.014;2023-04-03T16:19:55;2.67;;;1.30;;
56161;SDS011;42045;52.986;6.014;2023-04-03T16:22:21;3.25;;;1.30;;
56161;SDS011;42045;52.986;6.014;2023-04-03T16:24:49;6.35;;;1.98;;
56161;SDS011;42045;52.986;6.014;2023-04-03T16:27:15;4.93;;;1.90;;
56161;SDS011;42045;52.986;6.014;2023-04-03T16:29:41;3.78;;;1.60;;
56161;SDS011;42045;52.986;6.014;2023-04-03T16:32:07;3.45;;;1.70;;
56161;SDS011;42045;52.986;6.014;2023-04-03T16:34:32;6.28;;;1.80;;
56161;SDS011;42045;52.986;6.014;2023-04-03T16:36:58;3.28;;;1.80;;
56161;SDS011;42045;52.986;6.014;2023-04-03T16:39:24;2.88;;;1.17;;
56161;SDS011;42045;52.986;6.014;2023-04-03T16:41:50;1.85;;;1.15;;
56161;SDS011;42045;52.986;6.014;2023-04-03T16:44:16;3.35;;;1.40;;
56161;SDS011;42045;52.986;6.014;2023-04-03T16:46:42;3.55;;;1.35;;
56161;SDS011;42045;52.986;6.014;2023-04-03T16:49:07;2.78;;;1.48;;
56161;SDS011;42045;52.986;6.014;2023-04-03T16:51:33;1.88;;;1.13;;